TimeCDT,TemperatureF,Dew PointF,Humidity,Sea Level PressureIn,VisibilityMPH,Wind Direction,Wind SpeedMPH,Gust SpeedMPH,PrecipitationIn,Events,Conditions,WindDirDegrees,DateUTC
12:15 AM,64.6,43.3,46,30.14,10.0,SSE,3.5,-,N/A,,Overcast,160,2013-04-26 05:15:00
12:35 AM,64.6,43.7,47,30.14,10.0,SSE,5.8,-,N/A,,Overcast,150,2013-04-26 05:35:00
12:55 AM,64.6,43.9,47,30.14,10.0,SSE,4.6,-,N/A,,Overcast,160,2013-04-26 05:55:00
1:15 AM,64.4,44.1,48,30.14,10.0,SE,4.6,-,N/A,,Overcast,140,2013-04-26 06:15:00
1:35 AM,64.2,44.4,49,30.14,10.0,SE,4.6,-,N/A,,Overcast,140,2013-04-26 06:35:00
2:15 AM,63.5,44.6,50,30.10,10.0,ESE,4.6,-,N/A,,Overcast,120,2013-04-26 07:15:00
2:35 AM,63.0,44.2,50,30.09,10.0,East,4.6,-,N/A,,Overcast,100,2013-04-26 07:35:00
2:55 AM,62.8,44.2,51,30.08,10.0,ESE,3.5,-,N/A,,Overcast,110,2013-04-26 07:55:00
3:15 AM,62.6,44.6,52,30.08,10.0,ESE,6.9,-,N/A,,Overcast,110,2013-04-26 08:15:00
3:35 AM,62.2,44.6,52,30.06,10.0,ESE,5.8,-,N/A,,Overcast,120,2013-04-26 08:35:00
3:55 AM,62.2,44.8,53,30.06,10.0,ESE,5.8,-,N/A,,Overcast,120,2013-04-26 08:55:00
4:15 AM,62.2,44.8,53,30.05,10.0,ESE,6.9,-,N/A,,Overcast,120,2013-04-26 09:15:00
4:35 AM,62.6,44.8,52,30.05,10.0,SE,6.9,-,N/A,,Overcast,130,2013-04-26 09:35:00
4:55 AM,62.2,45.0,53,30.05,10.0,SE,11.5,18.4,N/A,,Overcast,130,2013-04-26 09:55:00
5:15 AM,61.9,45.0,54,30.06,10.0,SE,6.9,-,N/A,,Overcast,130,2013-04-26 10:15:00
5:35 AM,61.9,45.0,54,30.06,10.0,SE,9.2,-,N/A,,Overcast,130,2013-04-26 10:35:00
6:15 AM,61.5,45.0,55,30.06,10.0,ESE,10.4,-,N/A,,Overcast,120,2013-04-26 11:15:00
6:35 AM,61.3,45.1,55,30.05,10.0,SE,6.9,-,N/A,,Overcast,130,2013-04-26 11:35:00
6:55 AM,61.3,45.5,56,30.06,10.0,SE,9.2,17.3,N/A,,Overcast,130,2013-04-26 11:55:00
7:15 AM,61.2,45.5,56,30.06,10.0,ESE,9.2,-,N/A,,Overcast,120,2013-04-26 12:15:00
7:35 AM,61.3,45.5,56,30.08,10.0,SE,10.4,-,N/A,,Overcast,130,2013-04-26 12:35:00
7:55 AM,61.3,45.9,57,30.09,10.0,SE,5.8,-,N/A,,Overcast,130,2013-04-26 12:55:00
8:15 AM,61.7,46.4,57,30.09,10.0,ESE,9.2,-,N/A,,Overcast,120,2013-04-26 13:15:00
8:35 AM,61.7,47.3,59,30.09,10.0,ESE,6.9,16.1,N/A,,Overcast,110,2013-04-26 13:35:00
8:55 AM,61.9,48.2,61,30.10,10.0,ESE,9.2,-,N/A,,Overcast,120,2013-04-26 13:55:00
9:15 AM,62.6,48.7,60,30.08,10.0,ESE,10.4,17.3,N/A,,Overcast,120,2013-04-26 14:15:00
9:35 AM,63.0,50.0,63,30.08,10.0,ESE,9.2,18.4,N/A,,Overcast,120,2013-04-26 14:35:00
9:55 AM,63.5,51.8,66,30.09,10.0,SE,11.5,16.1,N/A,,Overcast,140,2013-04-26 14:55:00
10:15 AM,64.4,53.2,67,30.08,10.0,SE,12.7,18.4,N/A,,Overcast,140,2013-04-26 15:15:00
10:35 AM,66.2,54.1,65,30.08,10.0,SSE,13.8,19.6,N/A,,Overcast,150,2013-04-26 15:35:00
10:55 AM,65.5,54.9,68,30.09,10.0,ESE,13.8,17.3,N/A,,Overcast,110,2013-04-26 15:55:00
11:15 AM,64.6,55.2,72,30.09,10.0,SE,10.4,16.1,N/A,,Overcast,140,2013-04-26 16:15:00
11:35 AM,66.2,56.3,70,30.09,10.0,SE,10.4,16.1,N/A,,Overcast,130,2013-04-26 16:35:00
11:55 AM,65.5,56.8,74,30.09,10.0,SE,8.1,-,N/A,,Overcast,130,2013-04-26 16:55:00
12:15 PM,65.7,57.2,74,30.08,10.0,SE,12.7,17.3,N/A,,Overcast,130,2013-04-26 17:15:00
12:35 PM,65.5,57.7,76,30.07,10.0,ESE,9.2,17.3,N/A,,Overcast,120,2013-04-26 17:35:00
12:55 PM,68.0,58.6,72,30.05,10.0,ESE,11.5,20.7,N/A,,Overcast,120,2013-04-26 17:55:00
1:15 PM,69.8,59.2,69,30.04,10.0,SSE,12.7,20.7,N/A,,Overcast,150,2013-04-26 18:15:00
1:35 PM,70.9,59.9,68,30.03,10.0,SSE,11.5,17.3,N/A,,Overcast,160,2013-04-26 18:35:00
1:55 PM,73.8,59.7,61,30.02,10.0,SSE,13.8,21.9,N/A,,Overcast,150,2013-04-26 18:55:00
2:15 PM,75.2,59.0,57,30.01,10.0,South,15.0,26.5,N/A,,Overcast,170,2013-04-26 19:15:00
2:35 PM,75.0,59.5,58,30.00,10.0,SSE,16.1,23.0,N/A,,Mostly Cloudy,160,2013-04-26 19:35:00
2:55 PM,76.6,57.7,52,29.99,10.0,SSE,15.0,26.5,N/A,,Mostly Cloudy,160,2013-04-26 19:55:00
3:15 PM,77.5,57.6,50,29.98,10.0,South,16.1,24.2,N/A,,Mostly Cloudy,180,2013-04-26 20:15:00
3:35 PM,77.9,57.6,49,29.97,10.0,South,18.4,25.3,N/A,,Mostly Cloudy,190,2013-04-26 20:35:00
3:55 PM,81.5,57.0,43,29.97,10.0,South,16.1,21.9,N/A,,Scattered Clouds,180,2013-04-26 20:55:00
4:15 PM,82.0,57.4,43,29.95,10.0,South,16.1,26.5,N/A,,Clear,180,2013-04-26 21:15:00
4:35 PM,82.0,57.6,43,29.94,10.0,South,11.5,26.5,N/A,,Clear,170,2013-04-26 21:35:00
4:55 PM,82.2,58.3,44,29.94,10.0,South,9.2,20.7,N/A,,Clear,170,2013-04-26 21:55:00
5:15 PM,83.1,58.1,42,29.93,10.0,South,12.7,23.0,N/A,,Scattered Clouds,180,2013-04-26 22:15:00
5:35 PM,82.2,58.5,44,29.93,10.0,SSE,13.8,23.0,N/A,,Scattered Clouds,160,2013-04-26 22:35:00
5:55 PM,82.2,58.3,44,29.93,10.0,SE,15.0,23.0,N/A,,Clear,140,2013-04-26 22:55:00
6:15 PM,82.4,58.1,43,29.93,10.0,SSE,12.7,23.0,N/A,,Clear,160,2013-04-26 23:15:00
6:35 PM,81.7,59.0,46,29.92,10.0,SE,16.1,23.0,N/A,,Clear,140,2013-04-26 23:35:00
6:55 PM,81.3,58.3,45,29.92,10.0,SSE,12.7,19.6,N/A,,Clear,150,2013-04-26 23:55:00
7:15 PM,80.6,58.3,46,29.91,10.0,SSE,15.0,26.5,N/A,,Clear,150,2013-04-27 00:15:00
7:35 PM,79.7,58.6,48,29.92,10.0,SSE,18.4,25.3,N/A,,Clear,150,2013-04-27 00:35:00
7:55 PM,77.7,59.9,54,29.92,10.0,SSE,11.5,20.7,N/A,,Clear,150,2013-04-27 00:55:00
8:15 PM,76.5,59.2,55,29.93,10.0,SSE,10.4,16.1,N/A,,Clear,150,2013-04-27 01:15:00
8:35 PM,75.7,59.4,57,29.93,10.0,SE,9.2,16.1,N/A,,Clear,140,2013-04-27 01:35:00
8:55 PM,75.2,60.1,59,29.93,10.0,SE,8.1,-,N/A,,Clear,140,2013-04-27 01:55:00
9:15 PM,74.3,60.1,61,29.93,10.0,SE,9.2,-,N/A,,Clear,140,2013-04-27 02:15:00
9:35 PM,73.9,60.3,62,29.94,10.0,SSE,10.4,-,N/A,,Clear,150,2013-04-27 02:35:00
9:55 PM,73.8,60.3,63,29.94,10.0,SSE,8.1,-,N/A,,Clear,150,2013-04-27 02:55:00
10:15 PM,73.4,60.3,63,29.96,10.0,SSE,9.2,-,N/A,,Clear,150,2013-04-27 03:15:00
10:35 PM,72.5,60.4,66,29.96,10.0,SSE,6.9,-,N/A,,Clear,160,2013-04-27 03:35:00
10:55 PM,71.8,60.6,68,29.96,10.0,SSE,8.1,-,N/A,,Clear,150,2013-04-27 03:55:00
11:15 PM,71.6,60.8,69,29.97,10.0,SSE,4.6,-,N/A,,Clear,150,2013-04-27 04:15:00
11:35 PM,70.9,60.8,70,29.99,10.0,SSW,4.6,-,N/A,,Clear,210,2013-04-27 04:35:00
11:55 PM,70.9,60.8,70,30.03,10.0,West,8.1,-,N/A,,Mostly Cloudy,280,2013-04-27 04:55:00